Terminal Aerodrome Forecast
Issued by NWS

Home | Current Version | Previous Version | Text Only | Print | Product List | Glossary On
Versions: 1 2 3 4 5 6 7 8 9 10 11 12 13 14 15 16 17 18
000
FTUS43 KEAX 191100
TAFSTJ
TAF
KSTJ 191130Z 1912/2012 25005KT 5SM BR VCSH BKN070
     FM191800 26008KT P6SM VCSH OVC040
     FM192100 33016G24KT 5SM -RA OVC020
     FM200200 31013KT P6SM BKN060=

USA.gov is the U.S. government's official web portal to all federal, state and local government web resources and services.